sensor_id;sensor_type;location;lat;lon;timestamp;pressure;altitude;pressure_sealevel;temperature
20730;BMP280;10526;50.850;12.928;2022-10-03T00:03:36;98342.28;;;10.92
20730;BMP280;10526;50.850;12.928;2022-10-03T00:18:44;98352.97;;;10.78
20730;BMP280;10526;50.850;12.928;2022-10-03T00:23:40;98356.06;;;10.73
20730;BMP280;10526;50.850;12.928;2022-10-03T00:47:47;98369.72;;;10.78
20730;BMP280;10526;50.850;12.928;2022-10-03T00:52:58;98381.94;;;10.79
20730;BMP280;10526;50.850;12.928;2022-10-03T01:06:46;98388.38;;;10.75
20730;BMP280;10526;50.850;12.928;2022-10-03T01:16:11;98384.97;;;10.71
20730;BMP280;10526;50.850;12.928;2022-10-03T01:26:02;98385.34;;;10.69
20730;BMP280;10526;50.850;12.928;2022-10-03T01:30:36;98389.94;;;10.69
20730;BMP280;10526;50.850;12.928;2022-10-03T01:35:29;98397.53;;;10.63
20730;BMP280;10526;50.850;12.928;2022-10-03T01:40:04;98398.72;;;10.44
20730;BMP280;10526;50.850;12.928;2022-10-03T01:49:35;98398.34;;;10.31
20730;BMP280;10526;50.850;12.928;2022-10-03T01:59:04;98388.44;;;10.28
20730;BMP280;10526;50.850;12.928;2022-10-03T02:03:45;98401.72;;;10.32
20730;BMP280;10526;50.850;12.928;2022-10-03T02:08:22;98402.47;;;10.32
20730;BMP280;10526;50.850;12.928;2022-10-03T02:13:02;98410.50;;;10.36
20730;BMP280;10526;50.850;12.928;2022-10-03T02:17:44;98416.97;;;10.38
20730;BMP280;10526;50.850;12.928;2022-10-03T02:22:40;98421.53;;;10.38
20730;BMP280;10526;50.850;12.928;2022-10-03T02:27:47;98414.28;;;10.35
20730;BMP280;10526;50.850;12.928;2022-10-03T02:58:12;98425.34;;;10.33
20730;BMP280;10526;50.850;12.928;2022-10-03T03:03:25;98422.28;;;10.35
20730;BMP280;10526;50.850;12.928;2022-10-03T03:08:22;98437.50;;;10.38
20730;BMP280;10526;50.850;12.928;2022-10-03T03:23:30;98452.31;;;10.25
20730;BMP280;10526;50.850;12.928;2022-10-03T03:48:06;98451.16;;;10.04
20730;BMP280;10526;50.850;12.928;2022-10-03T03:52:55;98459.53;;;10.03
20730;BMP280;10526;50.850;12.928;2022-10-03T03:57:38;98462.94;;;10.00
20730;BMP280;10526;50.850;12.928;2022-10-03T04:12:25;98461.75;;;9.90
20730;BMP280;10526;50.850;12.928;2022-10-03T04:22:39;98464.41;;;9.90
20730;BMP280;10526;50.850;12.928;2022-10-03T04:37:16;98469.72;;;9.87
20730;BMP280;10526;50.850;12.928;2022-10-03T04:56:51;98478.06;;;9.78
20730;BMP280;10526;50.850;12.928;2022-10-03T05:06:34;98484.94;;;9.86
20730;BMP280;10526;50.850;12.928;2022-10-03T05:11:08;98483.81;;;9.87
20730;BMP280;10526;50.850;12.928;2022-10-03T05:30:08;98504.31;;;9.87
20730;BMP280;10526;50.850;12.928;2022-10-03T05:35:12;98512.28;;;9.90
20730;BMP280;10526;50.850;12.928;2022-10-03T05:40:23;98506.63;;;9.95
20730;BMP280;10526;50.850;12.928;2022-10-03T05:54:40;98524.16;;;10.03
20730;BMP280;10526;50.850;12.928;2022-10-03T05:59:21;98528.72;;;10.10
20730;BMP280;10526;50.850;12.928;2022-10-03T06:09:34;98544.34;;;10.26
20730;BMP280;10526;50.850;12.928;2022-10-03T06:14:28;98549.72;;;10.29
20730;BMP280;10526;50.850;12.928;2022-10-03T06:19:05;98540.59;;;10.37
20730;BMP280;10526;50.850;12.928;2022-10-03T06:23:54;98557.31;;;10.42
20730;BMP280;10526;50.850;12.928;2022-10-03T06:39:10;98571.44;;;10.60
20730;BMP280;10526;50.850;12.928;2022-10-03T06:55:12;98579.06;;;11.08
20730;BMP280;10526;50.850;12.928;2022-10-03T06:59:54;98588.97;;;11.25
20730;BMP280;10526;50.850;12.928;2022-10-03T07:34:09;98631.81;;;12.16
20730;BMP280;10526;50.850;12.928;2022-10-03T07:54:33;98648.41;;;12.59
20730;BMP280;10526;50.850;12.928;2022-10-03T08:34:32;98653.75;;;14.21
20730;BMP280;10526;50.850;12.928;2022-10-03T08:39:10;98647.69;;;15.17
20730;BMP280;10526;50.850;12.928;2022-10-03T09:14:16;98660.97;;;14.27
20730;BMP280;10526;50.850;12.928;2022-10-03T09:19:20;98668.53;;;14.02
20730;BMP280;10526;50.850;12.928;2022-10-03T10:09:59;98677.06;;;16.60
20730;BMP280;10526;50.850;12.928;2022-10-03T10:19:30;98675.44;;;15.31
20730;BMP280;10526;50.850;12.928;2022-10-03T11:23:41;98672.94;;;18.16
20730;BMP280;10526;50.850;12.928;2022-10-03T11:38:23;98667.56;;;18.42
20730;BMP280;10526;50.850;12.928;2022-10-03T11:53:07;98671.38;;;15.86
20730;BMP280;10526;50.850;12.928;2022-10-03T11:57:38;98672.66;;;16.33
20730;BMP280;10526;50.850;12.928;2022-10-03T12:07:17;98680.63;;;16.57
20730;BMP280;10526;50.850;12.928;2022-10-03T12:12:41;98666.53;;;16.17
20730;BMP280;10526;50.850;12.928;2022-10-03T12:17:16;98668.63;;;16.25
20730;BMP280;10526;50.850;12.928;2022-10-03T12:33:04;98666.97;;;17.13
20730;BMP280;10526;50.850;12.928;2022-10-03T12:42:40;98667.84;;;16.93
20730;BMP280;10526;50.850;12.928;2022-10-03T13:02:40;98676.16;;;17.44
20730;BMP280;10526;50.850;12.928;2022-10-03T13:07:31;98676.16;;;17.15
20730;BMP280;10526;50.850;12.928;2022-10-03T13:26:47;98662.25;;;17.17
20730;BMP280;10526;50.850;12.928;2022-10-03T13:31:20;98662.38;;;16.97
20730;BMP280;10526;50.850;12.928;2022-10-03T13:35:52;98666.81;;;16.55
20730;BMP280;10526;50.850;12.928;2022-10-03T13:40:20;98663.28;;;16.41
20730;BMP280;10526;50.850;12.928;2022-10-03T13:45:16;98658.47;;;16.33
20730;BMP280;10526;50.850;12.928;2022-10-03T14:04:17;98655.78;;;16.17
20730;BMP280;10526;50.850;12.928;2022-10-03T14:14:03;98652.44;;;15.53
20730;BMP280;10526;50.850;12.928;2022-10-03T14:19:23;98655.72;;;15.21
20730;BMP280;10526;50.850;12.928;2022-10-03T14:33:40;98661.41;;;15.66
20730;BMP280;10526;50.850;12.928;2022-10-03T14:38:52;98664.47;;;15.65
20730;BMP280;10526;50.850;12.928;2022-10-03T14:43:48;98658.34;;;15.64
20730;BMP280;10526;50.850;12.928;2022-10-03T14:48:22;98639.22;;;15.62
20730;BMP280;10526;50.850;12.928;2022-10-03T14:52:58;98640.06;;;15.59
20730;BMP280;10526;50.850;12.928;2022-10-03T14:57:57;98636.53;;;15.42
20730;BMP280;10526;50.850;12.928;2022-10-03T15:02:45;98640.78;;;15.40
20730;BMP280;10526;50.850;12.928;2022-10-03T15:07:08;98633.72;;;15.49
20730;BMP280;10526;50.850;12.928;2022-10-03T15:11:33;98628.13;;;15.40
20730;BMP280;10526;50.850;12.928;2022-10-03T15:16:00;98625.34;;;15.24
20730;BMP280;10526;50.850;12.928;2022-10-03T15:20:26;98635.34;;;15.00
20730;BMP280;10526;50.850;12.928;2022-10-03T15:25:20;98627.75;;;14.72
20730;BMP280;10526;50.850;12.928;2022-10-03T15:29:44;98625.91;;;14.42
20730;BMP280;10526;50.850;12.928;2022-10-03T15:34:25;98644.25;;;14.16
20730;BMP280;10526;50.850;12.928;2022-10-03T15:38:53;98642.59;;;13.95
20730;BMP280;10526;50.850;12.928;2022-10-03T15:43:57;98648.72;;;13.92
20730;BMP280;10526;50.850;12.928;2022-10-03T15:48:23;98645.16;;;13.72
20730;BMP280;10526;50.850;12.928;2022-10-03T15:52:52;98646.91;;;13.48
20730;BMP280;10526;50.850;12.928;2022-10-03T15:57:29;98636.09;;;13.21
20730;BMP280;10526;50.850;12.928;2022-10-03T16:01:54;98637.31;;;13.13
20730;BMP280;10526;50.850;12.928;2022-10-03T16:11:08;98639.56;;;13.14
20730;BMP280;10526;50.850;12.928;2022-10-03T16:20:43;98631.84;;;13.24
20730;BMP280;10526;50.850;12.928;2022-10-03T16:25:43;98618.56;;;13.16
20730;BMP280;10526;50.850;12.928;2022-10-03T16:34:35;98631.25;;;13.05
20730;BMP280;10526;50.850;12.928;2022-10-03T16:39:00;98632.84;;;12.99
20730;BMP280;10526;50.850;12.928;2022-10-03T16:43:25;98636.31;;;12.89
20730;BMP280;10526;50.850;12.928;2022-10-03T16:47:48;98640.59;;;12.86
20730;BMP280;10526;50.850;12.928;2022-10-03T16:52:37;98643.25;;;12.86
20730;BMP280;10526;50.850;12.928;2022-10-03T16:57:04;98639.81;;;12.86
20730;BMP280;10526;50.850;12.928;2022-10-03T17:01:50;98640.59;;;12.86
20730;BMP280;10526;50.850;12.928;2022-10-03T17:06:27;98638.66;;;12.87
20730;BMP280;10526;50.850;12.928;2022-10-03T17:11:03;98647.00;;;12.93
20730;BMP280;10526;50.850;12.928;2022-10-03T17:15:39;98643.22;;;12.90
20730;BMP280;10526;50.850;12.928;2022-10-03T17:20:15;98649.69;;;12.89
20730;BMP280;10526;50.850;12.928;2022-10-03T17:34:03;98655.81;;;12.89
20730;BMP280;10526;50.850;12.928;2022-10-03T17:39:03;98654.31;;;12.85
20730;BMP280;10526;50.850;12.928;2022-10-03T17:43:34;98658.59;;;12.79
20730;BMP280;10526;50.850;12.928;2022-10-03T17:48:33;98659.81;;;12.63
20730;BMP280;10526;50.850;12.928;2022-10-03T17:52:58;98653.78;;;12.49
20730;BMP280;10526;50.850;12.928;2022-10-03T17:57:35;98651.94;;;12.35
20730;BMP280;10526;50.850;12.928;2022-10-03T18:02:18;98650.50;;;12.16
20730;BMP280;10526;50.850;12.928;2022-10-03T18:06:50;98661.97;;;12.13
20730;BMP280;10526;50.850;12.928;2022-10-03T18:11:26;98665.38;;;12.14
20730;BMP280;10526;50.850;12.928;2022-10-03T18:35:47;98662.84;;;11.60
20730;BMP280;10526;50.850;12.928;2022-10-03T18:40:25;98658.66;;;11.52
20730;BMP280;10526;50.850;12.928;2022-10-03T18:44:49;98659.03;;;11.50
20730;BMP280;10526;50.850;12.928;2022-10-03T18:49:27;98656.38;;;11.50
20730;BMP280;10526;50.850;12.928;2022-10-03T18:59:55;98660.97;;;11.43
20730;BMP280;10526;50.850;12.928;2022-10-03T19:04:31;98667.06;;;11.43
20730;BMP280;10526;50.850;12.928;2022-10-03T19:08:59;98669.69;;;11.47
20730;BMP280;10526;50.850;12.928;2022-10-03T19:13:37;98661.69;;;11.47
20730;BMP280;10526;50.850;12.928;2022-10-03T19:18:22;98660.97;;;11.43
20730;BMP280;10526;50.850;12.928;2022-10-03T19:23:11;98658.66;;;11.38
20730;BMP280;10526;50.850;12.928;2022-10-03T19:27:52;98648.41;;;11.33
20730;BMP280;10526;50.850;12.928;2022-10-03T19:37:38;98647.22;;;11.23
20730;BMP280;10526;50.850;12.928;2022-10-03T19:42:38;98656.78;;;11.28
20730;BMP280;10526;50.850;12.928;2022-10-03T19:47:04;98666.69;;;11.27
20730;BMP280;10526;50.850;12.928;2022-10-03T19:51:31;98665.91;;;11.27
20730;BMP280;10526;50.850;12.928;2022-10-03T19:55:53;98661.72;;;11.26
20730;BMP280;10526;50.850;12.928;2022-10-03T20:04:38;98667.06;;;11.26
20730;BMP280;10526;50.850;12.928;2022-10-03T20:09:06;98668.97;;;11.25
20730;BMP280;10526;50.850;12.928;2022-10-03T20:13:42;98672.78;;;11.28
20730;BMP280;10526;50.850;12.928;2022-10-03T20:18:05;98662.09;;;11.28
20730;BMP280;10526;50.850;12.928;2022-10-03T20:22:31;98668.19;;;11.25
20730;BMP280;10526;50.850;12.928;2022-10-03T20:32:01;98653.34;;;11.23
20730;BMP280;10526;50.850;12.928;2022-10-03T20:36:28;98654.09;;;11.20
20730;BMP280;10526;50.850;12.928;2022-10-03T20:41:04;98656.41;;;11.18
20730;BMP280;10526;50.850;12.928;2022-10-03T20:45:31;98662.47;;;11.15
20730;BMP280;10526;50.850;12.928;2022-10-03T20:54:50;98649.91;;;11.19
20730;BMP280;10526;50.850;12.928;2022-10-03T20:59:13;98636.19;;;11.21
20730;BMP280;10526;50.850;12.928;2022-10-03T21:08:41;98642.28;;;11.21
20730;BMP280;10526;50.850;12.928;2022-10-03T21:13:29;98640.00;;;11.20
20730;BMP280;10526;50.850;12.928;2022-10-03T21:17:57;98640.00;;;11.20
20730;BMP280;10526;50.850;12.928;2022-10-03T21:22:22;98638.47;;;11.22
20730;BMP280;10526;50.850;12.928;2022-10-03T21:27:15;98644.56;;;11.23
20730;BMP280;10526;50.850;12.928;2022-10-03T21:32:31;98634.28;;;11.21
20730;BMP280;10526;50.850;12.928;2022-10-03T21:37:15;98635.06;;;11.26
20730;BMP280;10526;50.850;12.928;2022-10-03T21:42:20;98637.72;;;11.26
20730;BMP280;10526;50.850;12.928;2022-10-03T21:46:58;98630.50;;;11.26
20730;BMP280;10526;50.850;12.928;2022-10-03T21:52:15;98627.44;;;11.24
20730;BMP280;10526;50.850;12.928;2022-10-03T21:56:54;98622.84;;;11.25
20730;BMP280;10526;50.850;12.928;2022-10-03T22:01:30;98622.09;;;11.20
20730;BMP280;10526;50.850;12.928;2022-10-03T22:10:35;98624.78;;;11.13
20730;BMP280;10526;50.850;12.928;2022-10-03T22:24:37;98622.88;;;11.17
20730;BMP280;10526;50.850;12.928;2022-10-03T22:29:26;98614.88;;;11.17
20730;BMP280;10526;50.850;12.928;2022-10-03T22:38:41;98616.41;;;11.18
20730;BMP280;10526;50.850;12.928;2022-10-03T22:43:05;98612.59;;;11.19
20730;BMP280;10526;50.850;12.928;2022-10-03T22:47:31;98606.13;;;11.20
20730;BMP280;10526;50.850;12.928;2022-10-03T22:51:56;98620.19;;;11.21
20730;BMP280;10526;50.850;12.928;2022-10-03T22:57:17;98609.94;;;11.19
20730;BMP280;10526;50.850;12.928;2022-10-03T23:01:43;98607.25;;;11.16
20730;BMP280;10526;50.850;12.928;2022-10-03T23:06:57;98612.22;;;11.17
20730;BMP280;10526;50.850;12.928;2022-10-03T23:11:26;98610.66;;;11.16
20730;BMP280;10526;50.850;12.928;2022-10-03T23:15:56;98606.13;;;11.20
20730;BMP280;10526;50.850;12.928;2022-10-03T23:20:42;98598.13;;;11.20
20730;BMP280;10526;50.850;12.928;2022-10-03T23:25:16;98598.13;;;11.20
20730;BMP280;10526;50.850;12.928;2022-10-03T23:29:40;98595.44;;;11.17
20730;BMP280;10526;50.850;12.928;2022-10-03T23:34:02;98596.97;;;11.18
20730;BMP280;10526;50.850;12.928;2022-10-03T23:48:06;98608.41;;;11.26
20730;BMP280;10526;50.850;12.928;2022-10-03T23:52:48;98600.41;;;11.26
20730;BMP280;10526;50.850;12.928;2022-10-03T23:57:13;98605.34;;;11.23
